sensor_id;sensor_type;location;lat;lon;timestamp;P1;durP1;ratioP1;P2;durP2;ratioP2
23119;SDS011;11729;50.836;4.330;2024-01-10T00:01:41;14.10;;;10.65;;
23119;SDS011;11729;50.836;4.330;2024-01-10T00:04:07;14.75;;;11.70;;
23119;SDS011;11729;50.836;4.330;2024-01-10T00:06:33;15.93;;;12.30;;
23119;SDS011;11729;50.836;4.330;2024-01-10T00:08:59;16.70;;;12.02;;
23119;SDS011;11729;50.836;4.330;2024-01-10T00:11:25;15.60;;;12.82;;
23119;SDS011;11729;50.836;4.330;2024-01-10T00:13:52;17.98;;;11.90;;
23119;SDS011;11729;50.836;4.330;2024-01-10T00:16:17;13.48;;;11.90;;
23119;SDS011;11729;50.836;4.330;2024-01-10T00:18:43;14.68;;;12.07;;
23119;SDS011;11729;50.836;4.330;2024-01-10T00:21:10;16.60;;;12.00;;
23119;SDS011;11729;50.836;4.330;2024-01-10T00:23:36;15.15;;;11.45;;
23119;SDS011;11729;50.836;4.330;2024-01-10T00:26:02;17.08;;;11.93;;
23119;SDS011;11729;50.836;4.330;2024-01-10T00:28:28;16.95;;;12.85;;
23119;SDS011;11729;50.836;4.330;2024-01-10T00:30:54;15.25;;;11.40;;
23119;SDS011;11729;50.836;4.330;2024-01-10T00:33:22;15.80;;;11.63;;
23119;SDS011;11729;50.836;4.330;2024-01-10T00:35:49;15.02;;;11.52;;
23119;SDS011;11729;50.836;4.330;2024-01-10T00:38:15;19.88;;;11.88;;
23119;SDS011;11729;50.836;4.330;2024-01-10T00:40:40;15.38;;;11.77;;
23119;SDS011;11729;50.836;4.330;2024-01-10T00:43:06;15.85;;;12.38;;
23119;SDS011;11729;50.836;4.330;2024-01-10T00:45:32;14.65;;;11.98;;
23119;SDS011;11729;50.836;4.330;2024-01-10T00:47:57;14.25;;;11.98;;
23119;SDS011;11729;50.836;4.330;2024-01-10T00:50:23;15.27;;;12.30;;
23119;SDS011;11729;50.836;4.330;2024-01-10T00:52:49;15.70;;;11.75;;
23119;SDS011;11729;50.836;4.330;2024-01-10T00:55:14;16.00;;;11.90;;
23119;SDS011;11729;50.836;4.330;2024-01-10T00:57:40;15.70;;;12.88;;
23119;SDS011;11729;50.836;4.330;2024-01-10T01:00:07;13.52;;;11.10;;
23119;SDS011;11729;50.836;4.330;2024-01-10T01:02:34;17.63;;;13.02;;
23119;SDS011;11729;50.836;4.330;2024-01-10T01:05:00;15.38;;;12.25;;
23119;SDS011;11729;50.836;4.330;2024-01-10T01:07:27;13.82;;;12.23;;
23119;SDS011;11729;50.836;4.330;2024-01-10T01:09:53;17.08;;;12.05;;
23119;SDS011;11729;50.836;4.330;2024-01-10T01:12:19;16.00;;;12.18;;
23119;SDS011;11729;50.836;4.330;2024-01-10T01:14:45;16.73;;;12.13;;
23119;SDS011;11729;50.836;4.330;2024-01-10T01:17:10;13.98;;;11.80;;
23119;SDS011;11729;50.836;4.330;2024-01-10T01:19:36;19.70;;;12.15;;
23119;SDS011;11729;50.836;4.330;2024-01-10T01:22:02;16.73;;;12.52;;
23119;SDS011;11729;50.836;4.330;2024-01-10T01:24:28;15.55;;;12.45;;
23119;SDS011;11729;50.836;4.330;2024-01-10T01:26:53;13.18;;;11.52;;
23119;SDS011;11729;50.836;4.330;2024-01-10T01:31:47;14.55;;;11.27;;
23119;SDS011;11729;50.836;4.330;2024-01-10T01:34:13;14.02;;;11.95;;
23119;SDS011;11729;50.836;4.330;2024-01-10T01:36:39;15.38;;;11.68;;
23119;SDS011;11729;50.836;4.330;2024-01-10T01:39:05;14.48;;;12.20;;
23119;SDS011;11729;50.836;4.330;2024-01-10T01:41:31;14.52;;;12.10;;
23119;SDS011;11729;50.836;4.330;2024-01-10T01:43:56;18.77;;;12.43;;
23119;SDS011;11729;50.836;4.330;2024-01-10T01:46:22;13.55;;;11.68;;
23119;SDS011;11729;50.836;4.330;2024-01-10T01:48:48;15.32;;;12.23;;
23119;SDS011;11729;50.836;4.330;2024-01-10T01:51:17;17.00;;;12.05;;
23119;SDS011;11729;50.836;4.330;2024-01-10T01:53:47;15.98;;;12.70;;
23119;SDS011;11729;50.836;4.330;2024-01-10T01:56:14;16.77;;;12.83;;
23119;SDS011;11729;50.836;4.330;2024-01-10T01:58:41;16.08;;;12.27;;
23119;SDS011;11729;50.836;4.330;2024-01-10T02:01:10;17.10;;;11.73;;
23119;SDS011;11729;50.836;4.330;2024-01-10T02:03:37;18.40;;;11.75;;
23119;SDS011;11729;50.836;4.330;2024-01-10T02:06:03;15.82;;;11.27;;
23119;SDS011;11729;50.836;4.330;2024-01-10T02:08:33;13.43;;;11.73;;
23119;SDS011;11729;50.836;4.330;2024-01-10T02:11:00;16.13;;;11.70;;
23119;SDS011;11729;50.836;4.330;2024-01-10T02:13:28;16.98;;;12.55;;
23119;SDS011;11729;50.836;4.330;2024-01-10T02:15:55;17.45;;;12.25;;
23119;SDS011;11729;50.836;4.330;2024-01-10T02:18:21;16.40;;;12.50;;
23119;SDS011;11729;50.836;4.330;2024-01-10T02:20:47;17.98;;;12.70;;
23119;SDS011;11729;50.836;4.330;2024-01-10T02:23:13;18.33;;;12.73;;
23119;SDS011;11729;50.836;4.330;2024-01-10T02:25:39;16.52;;;12.43;;
23119;SDS011;11729;50.836;4.330;2024-01-10T02:28:06;17.08;;;12.95;;
23119;SDS011;11729;50.836;4.330;2024-01-10T02:30:34;14.57;;;12.38;;
23119;SDS011;11729;50.836;4.330;2024-01-10T02:33:00;15.50;;;12.40;;
23119;SDS011;11729;50.836;4.330;2024-01-10T02:35:26;15.70;;;11.57;;
23119;SDS011;11729;50.836;4.330;2024-01-10T02:37:52;15.73;;;12.13;;
23119;SDS011;11729;50.836;4.330;2024-01-10T02:40:19;20.08;;;12.85;;
23119;SDS011;11729;50.836;4.330;2024-01-10T02:42:45;17.48;;;12.35;;
23119;SDS011;11729;50.836;4.330;2024-01-10T02:45:12;16.48;;;11.60;;
23119;SDS011;11729;50.836;4.330;2024-01-10T02:47:38;17.55;;;12.07;;
23119;SDS011;11729;50.836;4.330;2024-01-10T02:50:04;15.50;;;13.02;;
23119;SDS011;11729;50.836;4.330;2024-01-10T02:52:31;17.83;;;11.98;;
23119;SDS011;11729;50.836;4.330;2024-01-10T02:54:56;17.63;;;11.98;;
23119;SDS011;11729;50.836;4.330;2024-01-10T02:57:22;18.52;;;12.57;;
23119;SDS011;11729;50.836;4.330;2024-01-10T02:59:48;14.95;;;12.70;;
23119;SDS011;11729;50.836;4.330;2024-01-10T03:02:14;13.02;;;11.73;;
23119;SDS011;11729;50.836;4.330;2024-01-10T03:04:40;17.55;;;12.75;;
23119;SDS011;11729;50.836;4.330;2024-01-10T03:07:06;15.68;;;12.23;;
23119;SDS011;11729;50.836;4.330;2024-01-10T03:09:32;16.02;;;13.02;;
23119;SDS011;11729;50.836;4.330;2024-01-10T03:11:58;17.05;;;12.80;;
23119;SDS011;11729;50.836;4.330;2024-01-10T03:14:24;17.45;;;13.27;;
23119;SDS011;11729;50.836;4.330;2024-01-10T03:16:49;15.65;;;12.23;;
23119;SDS011;11729;50.836;4.330;2024-01-10T03:19:15;17.08;;;12.10;;
23119;SDS011;11729;50.836;4.330;2024-01-10T03:21:41;16.02;;;12.23;;
23119;SDS011;11729;50.836;4.330;2024-01-10T03:24:07;15.40;;;11.95;;
23119;SDS011;11729;50.836;4.330;2024-01-10T03:26:33;20.05;;;11.88;;
23119;SDS011;11729;50.836;4.330;2024-01-10T03:29:00;18.67;;;13.18;;
23119;SDS011;11729;50.836;4.330;2024-01-10T03:31:28;19.27;;;12.82;;
23119;SDS011;11729;50.836;4.330;2024-01-10T03:33:55;14.30;;;12.32;;
23119;SDS011;11729;50.836;4.330;2024-01-10T03:36:21;15.82;;;12.85;;
23119;SDS011;11729;50.836;4.330;2024-01-10T03:38:47;20.02;;;13.25;;
23119;SDS011;11729;50.836;4.330;2024-01-10T03:41:13;17.88;;;12.48;;
23119;SDS011;11729;50.836;4.330;2024-01-10T03:43:39;18.50;;;13.90;;
23119;SDS011;11729;50.836;4.330;2024-01-10T03:46:05;19.92;;;12.85;;
23119;SDS011;11729;50.836;4.330;2024-01-10T03:48:31;17.65;;;12.73;;
23119;SDS011;11729;50.836;4.330;2024-01-10T03:50:56;15.50;;;12.80;;
23119;SDS011;11729;50.836;4.330;2024-01-10T03:53:23;16.83;;;12.75;;
23119;SDS011;11729;50.836;4.330;2024-01-10T03:55:49;19.25;;;13.48;;
23119;SDS011;11729;50.836;4.330;2024-01-10T03:58:14;18.88;;;13.73;;
23119;SDS011;11729;50.836;4.330;2024-01-10T04:00:40;17.00;;;12.75;;
23119;SDS011;11729;50.836;4.330;2024-01-10T04:03:06;23.98;;;13.30;;
23119;SDS011;11729;50.836;4.330;2024-01-10T04:05:31;18.52;;;12.90;;
23119;SDS011;11729;50.836;4.330;2024-01-10T04:07:57;18.48;;;12.32;;
23119;SDS011;11729;50.836;4.330;2024-01-10T04:10:23;19.70;;;13.18;;
23119;SDS011;11729;50.836;4.330;2024-01-10T04:12:48;15.05;;;11.65;;
23119;SDS011;11729;50.836;4.330;2024-01-10T04:15:14;19.30;;;12.93;;
23119;SDS011;11729;50.836;4.330;2024-01-10T04:17:40;14.38;;;12.50;;
23119;SDS011;11729;50.836;4.330;2024-01-10T04:20:06;15.93;;;12.50;;
23119;SDS011;11729;50.836;4.330;2024-01-10T04:22:32;19.85;;;13.40;;
23119;SDS011;11729;50.836;4.330;2024-01-10T04:24:59;14.45;;;11.77;;
23119;SDS011;11729;50.836;4.330;2024-01-10T04:27:26;15.50;;;12.30;;
23119;SDS011;11729;50.836;4.330;2024-01-10T04:29:52;16.50;;;12.30;;
23119;SDS011;11729;50.836;4.330;2024-01-10T04:32:18;17.13;;;12.10;;
23119;SDS011;11729;50.836;4.330;2024-01-10T04:34:46;16.65;;;12.75;;
23119;SDS011;11729;50.836;4.330;2024-01-10T04:37:13;16.45;;;11.98;;
23119;SDS011;11729;50.836;4.330;2024-01-10T04:39:39;15.88;;;11.70;;
23119;SDS011;11729;50.836;4.330;2024-01-10T04:42:07;17.65;;;12.70;;
23119;SDS011;11729;50.836;4.330;2024-01-10T04:44:33;15.82;;;12.18;;
23119;SDS011;11729;50.836;4.330;2024-01-10T04:46:59;20.00;;;12.50;;
23119;SDS011;11729;50.836;4.330;2024-01-10T04:49:25;17.85;;;12.05;;
23119;SDS011;11729;50.836;4.330;2024-01-10T04:51:51;16.20;;;12.02;;
23119;SDS011;11729;50.836;4.330;2024-01-10T04:54:17;16.77;;;12.63;;
23119;SDS011;11729;50.836;4.330;2024-01-10T04:56:42;13.85;;;12.00;;
23119;SDS011;11729;50.836;4.330;2024-01-10T04:59:08;14.90;;;11.30;;
23119;SDS011;11729;50.836;4.330;2024-01-10T05:01:34;17.67;;;12.25;;
23119;SDS011;11729;50.836;4.330;2024-01-10T05:04:00;17.23;;;12.52;;
23119;SDS011;11729;50.836;4.330;2024-01-10T05:06:25;18.25;;;12.77;;
23119;SDS011;11729;50.836;4.330;2024-01-10T05:08:51;14.90;;;11.57;;
23119;SDS011;11729;50.836;4.330;2024-01-10T05:11:17;18.52;;;12.70;;
23119;SDS011;11729;50.836;4.330;2024-01-10T05:13:43;17.00;;;12.55;;
23119;SDS011;11729;50.836;4.330;2024-01-10T05:16:08;17.98;;;12.55;;
23119;SDS011;11729;50.836;4.330;2024-01-10T05:18:34;16.63;;;12.57;;
23119;SDS011;11729;50.836;4.330;2024-01-10T05:21:00;13.02;;;11.73;;
23119;SDS011;11729;50.836;4.330;2024-01-10T05:23:26;16.73;;;11.40;;
23119;SDS011;11729;50.836;4.330;2024-01-10T05:25:53;16.10;;;11.75;;
23119;SDS011;11729;50.836;4.330;2024-01-10T05:28:19;17.48;;;12.60;;
23119;SDS011;11729;50.836;4.330;2024-01-10T05:30:46;16.10;;;12.35;;
23119;SDS011;11729;50.836;4.330;2024-01-10T05:33:12;12.85;;;11.45;;
23119;SDS011;11729;50.836;4.330;2024-01-10T05:35:38;17.70;;;12.90;;
23119;SDS011;11729;50.836;4.330;2024-01-10T05:38:05;20.63;;;13.00;;
23119;SDS011;11729;50.836;4.330;2024-01-10T05:40:31;16.27;;;12.55;;
23119;SDS011;11729;50.836;4.330;2024-01-10T05:42:57;14.75;;;12.25;;
23119;SDS011;11729;50.836;4.330;2024-01-10T05:45:25;17.27;;;13.10;;
23119;SDS011;11729;50.836;4.330;2024-01-10T05:47:51;15.55;;;13.05;;
23119;SDS011;11729;50.836;4.330;2024-01-10T05:50:17;16.02;;;12.88;;
23119;SDS011;11729;50.836;4.330;2024-01-10T05:52:43;15.98;;;12.35;;
23119;SDS011;11729;50.836;4.330;2024-01-10T05:55:08;15.95;;;12.32;;
23119;SDS011;11729;50.836;4.330;2024-01-10T05:57:36;17.38;;;12.82;;
23119;SDS011;11729;50.836;4.330;2024-01-10T06:00:02;17.35;;;12.70;;
23119;SDS011;11729;50.836;4.330;2024-01-10T06:02:29;15.48;;;12.57;;
23119;SDS011;11729;50.836;4.330;2024-01-10T06:04:56;16.63;;;12.27;;
23119;SDS011;11729;50.836;4.330;2024-01-10T06:07:22;14.85;;;11.75;;
23119;SDS011;11729;50.836;4.330;2024-01-10T06:09:48;15.45;;;12.55;;
23119;SDS011;11729;50.836;4.330;2024-01-10T06:12:14;19.13;;;12.25;;
23119;SDS011;11729;50.836;4.330;2024-01-10T06:14:39;19.48;;;12.77;;
23119;SDS011;11729;50.836;4.330;2024-01-10T06:17:06;16.25;;;12.77;;
23119;SDS011;11729;50.836;4.330;2024-01-10T06:19:31;16.25;;;12.52;;
23119;SDS011;11729;50.836;4.330;2024-01-10T06:21:58;17.67;;;13.10;;
23119;SDS011;11729;50.836;4.330;2024-01-10T06:24:26;20.67;;;12.07;;
23119;SDS011;11729;50.836;4.330;2024-01-10T06:26:51;19.67;;;12.80;;
23119;SDS011;11729;50.836;4.330;2024-01-10T06:29:18;19.88;;;13.23;;
23119;SDS011;11729;50.836;4.330;2024-01-10T06:31:44;20.58;;;11.98;;
23119;SDS011;11729;50.836;4.330;2024-01-10T06:34:09;16.13;;;12.73;;
23119;SDS011;11729;50.836;4.330;2024-01-10T06:36:36;16.42;;;12.45;;
23119;SDS011;11729;50.836;4.330;2024-01-10T06:39:03;14.82;;;12.27;;
23119;SDS011;11729;50.836;4.330;2024-01-10T06:41:29;15.57;;;13.15;;
23119;SDS011;11729;50.836;4.330;2024-01-10T06:43:55;17.17;;;12.05;;
23119;SDS011;11729;50.836;4.330;2024-01-10T06:46:20;17.60;;;12.40;;
23119;SDS011;11729;50.836;4.330;2024-01-10T06:48:48;17.92;;;12.43;;
23119;SDS011;11729;50.836;4.330;2024-01-10T06:51:16;20.23;;;12.77;;
23119;SDS011;11729;50.836;4.330;2024-01-10T06:53:41;16.60;;;13.30;;
23119;SDS011;11729;50.836;4.330;2024-01-10T06:56:07;20.60;;;12.07;;
23119;SDS011;11729;50.836;4.330;2024-01-10T06:58:35;16.55;;;12.10;;
23119;SDS011;11729;50.836;4.330;2024-01-10T07:01:01;18.10;;;12.85;;
23119;SDS011;11729;50.836;4.330;2024-01-10T07:03:29;15.18;;;12.60;;
23119;SDS011;11729;50.836;4.330;2024-01-10T07:05:55;22.42;;;13.23;;
23119;SDS011;11729;50.836;4.330;2024-01-10T07:08:22;24.08;;;13.10;;
23119;SDS011;11729;50.836;4.330;2024-01-10T07:10:48;15.82;;;12.18;;
23119;SDS011;11729;50.836;4.330;2024-01-10T07:13:13;18.77;;;13.38;;
23119;SDS011;11729;50.836;4.330;2024-01-10T07:15:40;18.08;;;12.48;;
23119;SDS011;11729;50.836;4.330;2024-01-10T07:18:06;26.20;;;13.35;;
23119;SDS011;11729;50.836;4.330;2024-01-10T07:20:32;16.13;;;12.48;;
23119;SDS011;11729;50.836;4.330;2024-01-10T07:22:58;14.82;;;11.98;;
23119;SDS011;11729;50.836;4.330;2024-01-10T07:25:24;16.15;;;12.13;;
23119;SDS011;11729;50.836;4.330;2024-01-10T07:27:51;19.40;;;12.10;;
23119;SDS011;11729;50.836;4.330;2024-01-10T07:30:17;19.58;;;12.23;;
23119;SDS011;11729;50.836;4.330;2024-01-10T07:32:43;16.65;;;12.45;;
23119;SDS011;11729;50.836;4.330;2024-01-10T07:35:09;19.92;;;12.43;;
23119;SDS011;11729;50.836;4.330;2024-01-10T07:37:40;19.30;;;11.68;;
23119;SDS011;11729;50.836;4.330;2024-01-10T07:40:07;19.45;;;13.05;;
23119;SDS011;11729;50.836;4.330;2024-01-10T07:42:36;16.73;;;12.95;;
23119;SDS011;11729;50.836;4.330;2024-01-10T07:45:02;17.30;;;12.70;;
23119;SDS011;11729;50.836;4.330;2024-01-10T07:47:33;20.25;;;12.70;;
23119;SDS011;11729;50.836;4.330;2024-01-10T07:50:03;18.67;;;13.70;;
23119;SDS011;11729;50.836;4.330;2024-01-10T07:52:32;19.38;;;12.50;;
23119;SDS011;11729;50.836;4.330;2024-01-10T07:54:59;18.17;;;12.57;;
23119;SDS011;11729;50.836;4.330;2024-01-10T07:57:25;19.75;;;12.63;;
23119;SDS011;11729;50.836;4.330;2024-01-10T07:59:52;16.85;;;11.90;;
23119;SDS011;11729;50.836;4.330;2024-01-10T08:02:18;18.27;;;12.20;;
23119;SDS011;11729;50.836;4.330;2024-01-10T08:04:44;20.90;;;12.77;;
23119;SDS011;11729;50.836;4.330;2024-01-10T08:07:10;16.23;;;12.30;;
23119;SDS011;11729;50.836;4.330;2024-01-10T08:09:37;18.23;;;13.57;;
23119;SDS011;11729;50.836;4.330;2024-01-10T08:12:03;15.93;;;12.32;;
23119;SDS011;11729;50.836;4.330;2024-01-10T08:14:29;17.90;;;12.63;;
23119;SDS011;11729;50.836;4.330;2024-01-10T08:16:55;19.50;;;13.40;;
23119;SDS011;11729;50.836;4.330;2024-01-10T08:19:25;24.52;;;14.63;;
23119;SDS011;11729;50.836;4.330;2024-01-10T08:21:52;22.73;;;14.15;;
23119;SDS011;11729;50.836;4.330;2024-01-10T08:24:18;20.73;;;12.57;;
23119;SDS011;11729;50.836;4.330;2024-01-10T08:26:46;18.73;;;13.13;;
23119;SDS011;11729;50.836;4.330;2024-01-10T08:29:17;24.48;;;13.73;;
23119;SDS011;11729;50.836;4.330;2024-01-10T08:31:44;22.75;;;13.85;;
23119;SDS011;11729;50.836;4.330;2024-01-10T08:34:10;15.82;;;12.25;;
23119;SDS011;11729;50.836;4.330;2024-01-10T08:36:36;18.48;;;12.68;;
23119;SDS011;11729;50.836;4.330;2024-01-10T08:39:02;19.13;;;13.25;;
23119;SDS011;11729;50.836;4.330;2024-01-10T08:41:30;17.73;;;12.85;;
23119;SDS011;11729;50.836;4.330;2024-01-10T08:43:55;20.13;;;13.02;;
23119;SDS011;11729;50.836;4.330;2024-01-10T08:46:23;21.58;;;13.30;;
23119;SDS011;11729;50.836;4.330;2024-01-10T08:48:49;18.33;;;13.32;;
23119;SDS011;11729;50.836;4.330;2024-01-10T08:51:15;20.98;;;13.93;;
23119;SDS011;11729;50.836;4.330;2024-01-10T08:53:42;22.10;;;14.48;;
23119;SDS011;11729;50.836;4.330;2024-01-10T08:56:08;21.35;;;13.13;;
23119;SDS011;11729;50.836;4.330;2024-01-10T08:58:35;21.08;;;13.65;;
23119;SDS011;11729;50.836;4.330;2024-01-10T09:01:01;27.00;;;14.48;;
23119;SDS011;11729;50.836;4.330;2024-01-10T09:03:29;21.60;;;13.15;;
23119;SDS011;11729;50.836;4.330;2024-01-10T09:05:55;22.33;;;14.07;;
23119;SDS011;11729;50.836;4.330;2024-01-10T09:08:21;17.42;;;13.90;;
23119;SDS011;11729;50.836;4.330;2024-01-10T09:10:47;21.95;;;14.32;;
23119;SDS011;11729;50.836;4.330;2024-01-10T09:13:14;20.20;;;13.82;;
23119;SDS011;11729;50.836;4.330;2024-01-10T09:15:40;19.35;;;14.98;;
23119;SDS011;11729;50.836;4.330;2024-01-10T09:18:07;23.08;;;14.48;;
23119;SDS011;11729;50.836;4.330;2024-01-10T09:20:34;22.02;;;14.60;;
23119;SDS011;11729;50.836;4.330;2024-01-10T09:23:01;28.27;;;15.60;;
23119;SDS011;11729;50.836;4.330;2024-01-10T09:25:27;20.02;;;14.77;;
23119;SDS011;11729;50.836;4.330;2024-01-10T09:27:53;20.85;;;14.73;;
23119;SDS011;11729;50.836;4.330;2024-01-10T09:30:19;23.40;;;14.73;;
23119;SDS011;11729;50.836;4.330;2024-01-10T09:32:45;22.08;;;15.02;;
23119;SDS011;11729;50.836;4.330;2024-01-10T09:35:11;23.73;;;14.90;;
23119;SDS011;11729;50.836;4.330;2024-01-10T09:37:38;20.90;;;13.85;;
23119;SDS011;11729;50.836;4.330;2024-01-10T09:40:04;20.85;;;14.57;;
23119;SDS011;11729;50.836;4.330;2024-01-10T09:42:34;22.48;;;13.93;;
23119;SDS011;11729;50.836;4.330;2024-01-10T09:45:03;17.80;;;13.57;;
23119;SDS011;11729;50.836;4.330;2024-01-10T09:47:30;19.17;;;13.90;;
23119;SDS011;11729;50.836;4.330;2024-01-10T09:49:57;24.00;;;14.07;;
23119;SDS011;11729;50.836;4.330;2024-01-10T09:52:24;21.65;;;14.60;;
23119;SDS011;11729;50.836;4.330;2024-01-10T09:54:53;17.20;;;13.97;;
23119;SDS011;11729;50.836;4.330;2024-01-10T09:57:21;23.10;;;14.60;;
23119;SDS011;11729;50.836;4.330;2024-01-10T09:59:49;24.50;;;14.48;;
23119;SDS011;11729;50.836;4.330;2024-01-10T10:02:16;25.27;;;14.43;;
23119;SDS011;11729;50.836;4.330;2024-01-10T10:04:54;22.55;;;14.27;;
23119;SDS011;11729;50.836;4.330;2024-01-10T10:07:42;18.30;;;13.70;;
23119;SDS011;11729;50.836;4.330;2024-01-10T10:10:15;18.92;;;13.60;;
23119;SDS011;11729;50.836;4.330;2024-01-10T10:12:42;23.58;;;15.18;;
23119;SDS011;11729;50.836;4.330;2024-01-10T10:15:13;18.80;;;13.25;;
23119;SDS011;11729;50.836;4.330;2024-01-10T10:17:45;27.90;;;14.15;;
23119;SDS011;11729;50.836;4.330;2024-01-10T10:22:57;22.45;;;14.70;;
23119;SDS011;11729;50.836;4.330;2024-01-10T10:25:28;19.23;;;14.00;;
23119;SDS011;11729;50.836;4.330;2024-01-10T10:28:00;21.88;;;13.95;;
23119;SDS011;11729;50.836;4.330;2024-01-10T10:30:30;19.15;;;14.43;;
23119;SDS011;11729;50.836;4.330;2024-01-10T10:32:57;22.52;;;13.93;;
23119;SDS011;11729;50.836;4.330;2024-01-10T10:35:23;20.73;;;14.13;;
23119;SDS011;11729;50.836;4.330;2024-01-10T10:37:49;22.20;;;15.05;;
23119;SDS011;11729;50.836;4.330;2024-01-10T10:40:15;22.27;;;14.10;;
23119;SDS011;11729;50.836;4.330;2024-01-10T10:42:45;26.60;;;14.20;;
23119;SDS011;11729;50.836;4.330;2024-01-10T10:45:20;20.67;;;14.57;;
23119;SDS011;11729;50.836;4.330;2024-01-10T10:47:50;17.60;;;13.57;;
23119;SDS011;11729;50.836;4.330;2024-01-10T10:50:27;20.02;;;14.10;;
23119;SDS011;11729;50.836;4.330;2024-01-10T10:52:57;17.38;;;13.35;;
23119;SDS011;11729;50.836;4.330;2024-01-10T10:55:26;29.48;;;13.40;;
23119;SDS011;11729;50.836;4.330;2024-01-10T10:57:54;26.55;;;14.40;;
23119;SDS011;11729;50.836;4.330;2024-01-10T11:00:21;23.65;;;13.93;;
23119;SDS011;11729;50.836;4.330;2024-01-10T11:02:52;24.35;;;14.93;;
23119;SDS011;11729;50.836;4.330;2024-01-10T11:05:23;20.23;;;14.00;;
23119;SDS011;11729;50.836;4.330;2024-01-10T11:07:50;16.90;;;13.57;;
23119;SDS011;11729;50.836;4.330;2024-01-10T11:10:29;22.20;;;14.77;;
23119;SDS011;11729;50.836;4.330;2024-01-10T11:15:59;22.45;;;14.38;;
23119;SDS011;11729;50.836;4.330;2024-01-10T11:23:54;22.73;;;14.15;;
23119;SDS011;11729;50.836;4.330;2024-01-10T11:26:21;22.90;;;14.38;;
23119;SDS011;11729;50.836;4.330;2024-01-10T11:28:47;22.05;;;14.20;;
23119;SDS011;11729;50.836;4.330;2024-01-10T11:31:14;20.85;;;14.75;;
23119;SDS011;11729;50.836;4.330;2024-01-10T11:33:40;20.75;;;13.40;;
23119;SDS011;11729;50.836;4.330;2024-01-10T11:36:15;21.73;;;14.83;;
23119;SDS011;11729;50.836;4.330;2024-01-10T11:39:04;19.17;;;13.55;;
23119;SDS011;11729;50.836;4.330;2024-01-10T11:41:30;20.30;;;14.65;;
23119;SDS011;11729;50.836;4.330;2024-01-10T11:46:38;18.83;;;14.82;;
23119;SDS011;11729;50.836;4.330;2024-01-10T11:49:11;21.00;;;14.10;;
23119;SDS011;11729;50.836;4.330;2024-01-10T11:51:38;22.23;;;15.20;;
23119;SDS011;11729;50.836;4.330;2024-01-10T11:54:06;21.52;;;15.27;;
23119;SDS011;11729;50.836;4.330;2024-01-10T11:56:42;25.80;;;15.25;;
23119;SDS011;11729;50.836;4.330;2024-01-10T11:59:10;22.77;;;14.68;;
23119;SDS011;11729;50.836;4.330;2024-01-10T12:01:37;24.33;;;15.32;;
23119;SDS011;11729;50.836;4.330;2024-01-10T12:04:03;22.50;;;15.25;;
23119;SDS011;11729;50.836;4.330;2024-01-10T12:06:30;22.98;;;14.77;;
23119;SDS011;11729;50.836;4.330;2024-01-10T12:08:56;20.55;;;13.82;;
23119;SDS011;11729;50.836;4.330;2024-01-10T12:11:22;28.15;;;15.73;;
23119;SDS011;11729;50.836;4.330;2024-01-10T12:13:50;23.80;;;15.03;;
23119;SDS011;11729;50.836;4.330;2024-01-10T12:16:16;20.95;;;14.73;;
23119;SDS011;11729;50.836;4.330;2024-01-10T12:18:43;18.70;;;14.45;;
23119;SDS011;11729;50.836;4.330;2024-01-10T12:21:10;22.27;;;14.82;;
23119;SDS011;11729;50.836;4.330;2024-01-10T12:23:37;20.15;;;14.30;;
23119;SDS011;11729;50.836;4.330;2024-01-10T12:26:08;17.70;;;13.68;;
23119;SDS011;11729;50.836;4.330;2024-01-10T12:28:37;21.67;;;14.38;;
23119;SDS011;11729;50.836;4.330;2024-01-10T12:31:04;20.70;;;14.07;;
23119;SDS011;11729;50.836;4.330;2024-01-10T12:33:32;23.65;;;14.70;;
23119;SDS011;11729;50.836;4.330;2024-01-10T12:36:06;24.52;;;14.30;;
23119;SDS011;11729;50.836;4.330;2024-01-10T12:38:34;22.50;;;14.95;;
23119;SDS011;11729;50.836;4.330;2024-01-10T12:41:01;19.92;;;13.95;;
23119;SDS011;11729;50.836;4.330;2024-01-10T12:43:29;23.02;;;13.88;;
23119;SDS011;11729;50.836;4.330;2024-01-10T12:46:08;24.23;;;15.10;;
23119;SDS011;11729;50.836;4.330;2024-01-10T12:48:43;26.08;;;15.65;;
23119;SDS011;11729;50.836;4.330;2024-01-10T12:51:10;21.20;;;14.95;;
23119;SDS011;11729;50.836;4.330;2024-01-10T12:53:41;26.98;;;15.32;;
23119;SDS011;11729;50.836;4.330;2024-01-10T12:56:09;23.45;;;15.57;;
23119;SDS011;11729;50.836;4.330;2024-01-10T12:58:40;23.35;;;15.00;;
23119;SDS011;11729;50.836;4.330;2024-01-10T13:01:08;22.13;;;14.60;;
23119;SDS011;11729;50.836;4.330;2024-01-10T13:03:34;21.73;;;14.48;;
23119;SDS011;11729;50.836;4.330;2024-01-10T13:06:00;26.13;;;14.80;;
23119;SDS011;11729;50.836;4.330;2024-01-10T13:08:26;21.05;;;15.00;;
23119;SDS011;11729;50.836;4.330;2024-01-10T13:10:52;21.38;;;14.38;;
23119;SDS011;11729;50.836;4.330;2024-01-10T13:13:18;22.65;;;14.45;;
23119;SDS011;11729;50.836;4.330;2024-01-10T13:15:46;21.48;;;15.25;;
23119;SDS011;11729;50.836;4.330;2024-01-10T13:18:12;20.58;;;14.88;;
23119;SDS011;11729;50.836;4.330;2024-01-10T13:20:39;19.40;;;14.77;;
23119;SDS011;11729;50.836;4.330;2024-01-10T13:23:07;23.33;;;15.13;;
23119;SDS011;11729;50.836;4.330;2024-01-10T13:25:33;22.63;;;14.35;;
23119;SDS011;11729;50.836;4.330;2024-01-10T13:27:59;22.13;;;14.80;;
23119;SDS011;11729;50.836;4.330;2024-01-10T13:30:26;25.73;;;15.35;;
23119;SDS011;11729;50.836;4.330;2024-01-10T13:32:52;27.83;;;14.82;;
23119;SDS011;11729;50.836;4.330;2024-01-10T13:35:18;22.42;;;14.90;;
23119;SDS011;11729;50.836;4.330;2024-01-10T13:37:46;23.02;;;14.40;;
23119;SDS011;11729;50.836;4.330;2024-01-10T13:42:38;23.33;;;14.40;;
23119;SDS011;11729;50.836;4.330;2024-01-10T13:45:05;19.48;;;13.80;;
23119;SDS011;11729;50.836;4.330;2024-01-10T13:47:32;22.65;;;14.50;;
23119;SDS011;11729;50.836;4.330;2024-01-10T13:49:59;22.02;;;14.07;;
23119;SDS011;11729;50.836;4.330;2024-01-10T13:52:25;25.00;;;14.90;;
23119;SDS011;11729;50.836;4.330;2024-01-10T13:54:52;19.83;;;14.13;;
23119;SDS011;11729;50.836;4.330;2024-01-10T13:57:19;24.65;;;14.63;;
23119;SDS011;11729;50.836;4.330;2024-01-10T13:59:45;22.45;;;15.38;;
23119;SDS011;11729;50.836;4.330;2024-01-10T14:02:12;21.02;;;14.68;;
23119;SDS011;11729;50.836;4.330;2024-01-10T14:04:37;19.73;;;14.13;;
23119;SDS011;11729;50.836;4.330;2024-01-10T14:07:03;19.80;;;14.77;;
23119;SDS011;11729;50.836;4.330;2024-01-10T14:09:30;21.83;;;14.77;;
23119;SDS011;11729;50.836;4.330;2024-01-10T14:11:56;26.27;;;15.57;;
23119;SDS011;11729;50.836;4.330;2024-01-10T14:14:23;22.10;;;15.18;;
23119;SDS011;11729;50.836;4.330;2024-01-10T14:16:49;28.10;;;14.88;;
23119;SDS011;11729;50.836;4.330;2024-01-10T14:19:15;26.83;;;16.15;;
23119;SDS011;11729;50.836;4.330;2024-01-10T14:21:44;24.23;;;15.43;;
23119;SDS011;11729;50.836;4.330;2024-01-10T14:24:10;22.45;;;15.30;;
23119;SDS011;11729;50.836;4.330;2024-01-10T14:26:36;23.77;;;15.18;;
23119;SDS011;11729;50.836;4.330;2024-01-10T14:29:02;23.40;;;15.95;;
23119;SDS011;11729;50.836;4.330;2024-01-10T14:31:28;26.05;;;15.18;;
23119;SDS011;11729;50.836;4.330;2024-01-10T14:33:54;27.38;;;16.02;;
23119;SDS011;11729;50.836;4.330;2024-01-10T14:36:22;28.85;;;16.50;;
23119;SDS011;11729;50.836;4.330;2024-01-10T14:38:48;26.85;;;15.73;;